Los Angeles, CA

6:25 AM PDT on September 01, 2015 (GMT -0700)
Natural History Museum | | Change Station
CLOSE
Current Station
Personal Weather Station
Location: Los Angeles, CA
Elevation: 207 ft
Nearby Weather Stations

Elev 207 ft 34.02 °N, 118.29 °W | Updated 11 seconds ago

Overcast
Overcast
70.1 °F
Feels Like 73 °F
N
3.3
Wind Variable Wind from NNE
Gusts 3.3 mph

Today
High -- | Low -- °F
--% Chance of Precip.
Yesterday
High -- | Low -- °F
Precip. -- in
6:26 AM 7:18 PM
Waning Gibbous, 89% visible
Pressure 29.89 in
Visibility 10.0 miles
Clouds Overcast 2700 ft
Heat Index 73 °F
Dew Point 61 °F
Humidity 73%
Rainfall 0.00 in
Snow Depth Not available.
UV 0 out of 12
Pollen 7.20 out of 12
Air Quality Not available.
Flu Activity Not available.
METAR KCQT 011247Z AUTO 00000KT 10SM OVC027 22/15 A2989 RMK AO2 SLP120 T02170150
Pressure 29.89 in
Visibility 10.0 miles
Clouds Overcast 2700 ft
Heat Index 73 °F
Dew Point 61 °F
Humidity 73%
Rainfall 0.00 in
Snow Depth Not available.
UV 0 out of 12
Pollen 7.20 out of 12
Air Quality Not available.
Flu Activity Not available.
METAR KCQT 011247Z AUTO 00000KT 10SM OVC027 22/15 A2989 RMK AO2 SLP120 T02170150

10-Day Weather Forecast

×

Almanac

Astronomy

Sep. 01, 2015 Rise Set
Actual Time
Civil Twilight
Nautical Twilight
Astronomical Twilight
Moon
Length of Visible Light
Length of Day
Tomorrow will be .
, % of the Moon is Illuminated

Today's Extremes

State Highs State Lows

Community

WunderPhotos

Upload Photos

1,851,513 photos uploaded!

WunderBlogs® & News

Nearby

Air Quality

  Air Quality AQ Index Pollutant
Not available.

Snow Depth

Station Depth Elevation

Earthquake Activity

City Distance Mag. Time & Date
Minimum magnitude displayed is 2.5.

Coastal Water Temperatures

Place Temperature

Stations

Nearby Weather Stations

Station Location Temp. Windchill Dew Point Humidity Wind Precip. Elev Updated Type